createdAt,value
2022-08-12T00:02:04.309Z,2.03
2022-08-12T00:03:28.568Z,2.10
2022-08-12T00:05:10.019Z,2.10
2022-08-12T00:06:53.364Z,1.98
2022-08-12T00:08:36.771Z,1.92
2022-08-12T00:10:18.189Z,1.80
2022-08-12T00:11:59.368Z,1.90
2022-08-12T00:13:40.432Z,2.15
2022-08-12T00:15:23.264Z,1.70
2022-08-12T00:17:04.478Z,1.85
2022-08-12T00:18:45.311Z,2.17
2022-08-12T00:20:29.707Z,2.25
2022-08-12T00:22:11.147Z,2.13
2022-08-12T00:23:53.257Z,1.90
2022-08-12T00:26:01.203Z,2.58
2022-08-12T00:27:44.074Z,2.00
2022-08-12T00:29:24.999Z,2.10
2022-08-12T00:31:07.568Z,2.28
2022-08-12T00:32:54.384Z,2.00
2022-08-12T00:34:37.686Z,2.60
2022-08-12T00:36:34.888Z,2.47
2022-08-12T00:38:20.133Z,2.10
2022-08-12T00:40:01.398Z,2.13
2022-08-12T00:41:47.187Z,2.17
2022-08-12T00:43:12.290Z,2.65
2022-08-12T00:44:35.929Z,2.47
2022-08-12T00:46:18.508Z,2.47
2022-08-12T00:47:42.581Z,2.10
2022-08-12T00:49:06.124Z,2.47
2022-08-12T00:50:30.672Z,2.20
2022-08-12T00:52:09.752Z,2.13
2022-08-12T00:53:33.521Z,2.00
2022-08-12T00:54:58.696Z,2.47
2022-08-12T00:56:22.206Z,1.92
2022-08-12T00:57:48.837Z,2.08
2022-08-12T00:59:11.822Z,2.10
2022-08-12T01:00:36.016Z,2.28
2022-08-12T01:02:12.075Z,2.08
2022-08-12T01:03:51.997Z,2.20
2022-08-12T01:05:34.968Z,1.98
2022-08-12T01:07:17.618Z,2.20
2022-08-12T01:09:01.262Z,2.15
2022-08-12T01:10:47.555Z,2.00
2022-08-12T01:12:12.894Z,2.50
2022-08-12T01:13:38.149Z,2.60
2022-08-12T01:15:01.825Z,1.85
2022-08-12T01:16:26.073Z,2.35
2022-08-12T01:17:51.044Z,1.95
2022-08-12T01:19:15.179Z,1.92
2022-08-12T01:20:48.029Z,2.22
2022-08-12T01:22:25.901Z,2.53
2022-08-12T01:24:30.379Z,1.67
2022-08-12T01:25:58.030Z,2.28
2022-08-12T01:27:20.981Z,2.30
2022-08-12T01:28:45.804Z,2.20
2022-08-12T01:30:13.496Z,2.00
2022-08-12T01:31:39.137Z,2.20
2022-08-12T01:33:06.018Z,2.35
2022-08-12T01:34:36.838Z,2.22
2022-08-12T01:36:08.393Z,1.98
2022-08-12T01:37:33.257Z,2.90
2022-08-12T01:38:59.267Z,2.30
2022-08-12T01:40:36.098Z,2.00
2022-08-12T01:42:05.666Z,1.95
2022-08-12T01:43:29.275Z,2.33
2022-08-12T01:44:53.917Z,2.05
2022-08-12T01:46:27.021Z,1.80
2022-08-12T01:47:57.629Z,2.20
2022-08-12T01:49:43.525Z,2.25
2022-08-12T01:52:15.618Z,2.50
2022-08-12T01:53:06.405Z,2.30
2022-08-12T01:54:31.096Z,2.65
2022-08-12T01:55:53.849Z,2.22
2022-08-12T01:57:58.793Z,2.10
2022-08-12T01:59:26.581Z,2.00
2022-08-12T02:00:59.155Z,2.53
2022-08-12T02:02:28.234Z,2.10
2022-08-12T02:04:24.694Z,2.60
2022-08-12T02:06:12.810Z,2.05
2022-08-12T02:08:02.991Z,2.50
2022-08-12T02:09:52.701Z,2.28
2022-08-12T02:11:23.132Z,2.13
2022-08-12T02:12:55.726Z,2.05
2022-08-12T02:14:32.871Z,2.40
2022-08-12T02:15:59.351Z,2.35
2022-08-12T02:17:56.298Z,2.33
2022-08-12T02:19:28.529Z,2.38
2022-08-12T02:21:01.226Z,2.55
2022-08-12T02:22:28.776Z,2.42
2022-08-12T02:23:52.603Z,2.20
2022-08-12T02:25:17.499Z,2.08
2022-08-12T02:26:44.068Z,2.40
2022-08-12T02:28:08.295Z,2.22
2022-08-12T02:29:32.427Z,2.65
2022-08-12T02:30:55.697Z,2.40
2022-08-12T02:32:19.298Z,1.98
2022-08-12T02:33:43.008Z,2.70
2022-08-12T02:35:07.369Z,2.80
2022-08-12T02:36:33.135Z,2.45
2022-08-12T02:38:00.325Z,2.70
2022-08-12T02:39:25.970Z,2.80
2022-08-12T02:40:49.978Z,2.78
2022-08-12T02:42:13.053Z,2.40
2022-08-12T02:43:43.211Z,2.42
2022-08-12T02:45:08.798Z,2.20
2022-08-12T02:46:34.314Z,2.58
2022-08-12T02:48:01.145Z,2.50
2022-08-12T02:49:31.746Z,2.47
2022-08-12T02:50:58.038Z,2.55
2022-08-12T02:52:21.776Z,2.58
2022-08-12T02:53:46.117Z,2.35
2022-08-12T02:55:34.460Z,2.38
2022-08-12T02:56:59.087Z,2.53
2022-08-12T02:58:32.900Z,2.35
2022-08-12T03:00:00.174Z,2.20
2022-08-12T03:01:28.481Z,2.08
2022-08-12T03:02:53.787Z,2.50
2022-08-12T03:04:27.319Z,2.33
2022-08-12T03:05:55.488Z,2.25
2022-08-12T03:07:23.120Z,2.25
2022-08-12T03:08:57.341Z,2.30
2022-08-12T03:10:37.178Z,2.40
2022-08-12T03:12:07.631Z,2.10
2022-08-12T03:13:38.994Z,2.45
2022-08-12T03:15:05.053Z,2.35
2022-08-12T03:16:36.989Z,2.10
2022-08-12T03:18:25.942Z,2.67
2022-08-12T03:20:10.296Z,2.20
2022-08-12T03:21:56.507Z,2.70
2022-08-12T03:23:28.585Z,3.03
2022-08-12T03:24:54.110Z,2.58
2022-08-12T03:26:16.624Z,2.22
2022-08-12T03:27:51.525Z,2.78
2022-08-12T03:29:14.491Z,2.65
2022-08-12T03:30:40.376Z,2.45
2022-08-12T03:32:05.695Z,2.60
2022-08-12T03:33:30.365Z,2.60
2022-08-12T03:34:54.867Z,2.78
2022-08-12T03:36:21.577Z,2.45
2022-08-12T03:37:46.741Z,2.35
2022-08-12T03:39:37.012Z,2.38
2022-08-12T03:41:20.997Z,2.38
2022-08-12T03:43:05.895Z,2.63
2022-08-12T03:45:04.363Z,2.58
2022-08-12T03:46:52.003Z,2.80
2022-08-12T03:48:33.687Z,2.45
2022-08-12T03:50:14.959Z,2.40
2022-08-12T03:51:56.126Z,2.03
2022-08-12T03:53:43.217Z,2.35
2022-08-12T03:55:25.326Z,2.17
2022-08-12T03:57:06.348Z,2.90
2022-08-12T03:58:47.782Z,3.33
2022-08-12T04:00:23.981Z,2.72
2022-08-12T04:01:57.380Z,2.35
2022-08-12T04:03:41.895Z,2.40
2022-08-12T04:05:07.980Z,2.90
2022-08-12T04:06:35.364Z,2.58
2022-08-12T04:08:00.999Z,2.63
2022-08-12T04:09:24.874Z,2.95
2022-08-12T04:11:06.195Z,2.55
2022-08-12T04:12:47.303Z,2.78
2022-08-12T04:14:12.143Z,2.17
2022-08-12T04:15:35.982Z,2.25
2022-08-12T04:17:01.271Z,3.05
2022-08-12T04:18:24.013Z,2.10
2022-08-12T04:19:48.310Z,3.13
2022-08-12T04:21:12.038Z,2.88
2022-08-12T04:22:35.772Z,2.67
2022-08-12T04:23:58.758Z,3.05
2022-08-12T04:25:23.998Z,2.88
2022-08-12T04:26:46.665Z,2.75
2022-08-12T04:28:13.471Z,2.70
2022-08-12T04:30:31.434Z,2.60
2022-08-12T04:31:20.797Z,2.75
2022-08-12T04:32:46.241Z,3.17
2022-08-12T04:34:09.920Z,2.50
2022-08-12T04:35:33.461Z,3.10
2022-08-12T04:36:57.002Z,3.15
2022-08-12T04:38:20.531Z,2.92
2022-08-12T04:39:45.468Z,2.95
2022-08-12T04:41:11.066Z,2.85
2022-08-12T04:42:34.557Z,3.08
2022-08-12T04:44:02.144Z,2.78
2022-08-12T04:45:25.149Z,2.55
2022-08-12T04:46:48.746Z,2.70
2022-08-12T04:48:13.668Z,2.70
2022-08-12T04:49:40.744Z,2.40
2022-08-12T04:51:03.583Z,3.13
2022-08-12T04:52:29.620Z,2.40
2022-08-12T04:53:55.393Z,2.60
2022-08-12T04:55:19.015Z,2.95
2022-08-12T04:56:42.863Z,2.60
2022-08-12T04:58:06.591Z,3.63
2022-08-12T04:59:30.107Z,2.60
2022-08-12T05:00:53.922Z,2.53
2022-08-12T05:02:21.533Z,2.22
2022-08-12T05:03:47.446Z,2.42
2022-08-12T05:05:20.276Z,2.67
2022-08-12T05:06:42.932Z,2.70
2022-08-12T05:08:09.588Z,2.70
2022-08-12T05:10:00.105Z,2.67
2022-08-12T05:11:15.597Z,2.45
2022-08-12T05:12:44.921Z,2.55
2022-08-12T05:14:09.010Z,2.35
2022-08-12T05:15:32.685Z,2.95
2022-08-12T05:16:55.200Z,2.67
2022-08-12T05:18:19.600Z,2.60
2022-08-12T05:19:45.329Z,2.70
2022-08-12T05:21:10.384Z,2.35
2022-08-12T05:22:37.146Z,2.63
2022-08-12T05:24:01.415Z,2.53
2022-08-12T05:25:25.020Z,2.65
2022-08-12T05:26:49.203Z,2.67
2022-08-12T05:28:13.069Z,2.35
2022-08-12T05:30:06.576Z,2.20
2022-08-12T05:31:47.505Z,2.97
2022-08-12T05:33:06.974Z,2.75
2022-08-12T05:34:30.594Z,2.70
2022-08-12T05:35:55.732Z,3.25
2022-08-12T05:37:18.387Z,2.50
2022-08-12T05:38:57.181Z,2.50
2022-08-12T05:40:20.974Z,2.60
2022-08-12T05:41:44.593Z,2.33
2022-08-12T05:43:07.858Z,2.80
2022-08-12T05:44:31.489Z,2.75
2022-08-12T05:45:59.362Z,2.42
2022-08-12T05:47:23.050Z,2.53
2022-08-12T05:49:02.863Z,2.63
2022-08-12T05:50:26.820Z,3.03
2022-08-12T05:51:51.871Z,2.60
2022-08-12T05:53:14.629Z,2.90
2022-08-12T05:54:57.073Z,2.75
2022-08-12T05:56:23.348Z,2.60
2022-08-12T05:57:49.601Z,2.35
2022-08-12T05:59:14.013Z,2.58
2022-08-12T06:00:38.112Z,3.13
2022-08-12T06:02:10.885Z,2.42
2022-08-12T06:03:36.525Z,2.40
2022-08-12T06:05:00.393Z,2.40
2022-08-12T06:06:27.675Z,3.47
2022-08-12T06:08:03.109Z,2.67
2022-08-12T06:09:30.299Z,2.40
2022-08-12T06:10:53.985Z,2.78
2022-08-12T06:12:23.667Z,2.38
2022-08-12T06:13:54.229Z,2.40
2022-08-12T06:15:18.328Z,2.33
2022-08-12T06:16:43.941Z,2.72
2022-08-12T06:18:13.910Z,2.95
2022-08-12T06:20:26.481Z,2.28
2022-08-12T06:21:23.806Z,2.80
2022-08-12T06:22:47.863Z,2.40
2022-08-12T06:24:14.157Z,2.40
2022-08-12T06:25:36.733Z,2.47
2022-08-12T06:27:00.277Z,2.08
2022-08-12T06:28:24.078Z,2.75
2022-08-12T06:30:06.953Z,2.03
2022-08-12T06:31:31.473Z,2.33
2022-08-12T06:33:11.467Z,2.67
2022-08-12T06:35:25.895Z,2.35
2022-08-12T06:36:23.252Z,2.10
2022-08-12T06:37:56.748Z,2.15
2022-08-12T06:39:24.140Z,2.00
2022-08-12T06:41:06.495Z,2.50
2022-08-12T06:42:47.985Z,2.22
2022-08-12T06:44:20.490Z,2.20
2022-08-12T06:45:47.239Z,2.17
2022-08-12T06:47:11.198Z,2.63
2022-08-12T06:48:35.723Z,2.17
2022-08-12T06:49:58.329Z,1.92
2022-08-12T06:51:22.488Z,2.10
2022-08-12T06:52:45.577Z,2.30
2022-08-12T06:54:10.537Z,1.83
2022-08-12T06:55:34.600Z,2.22
2022-08-12T06:57:57.297Z,2.10
2022-08-12T06:58:42.546Z,2.00
2022-08-12T07:00:08.891Z,2.17
2022-08-12T07:01:32.555Z,1.85
2022-08-12T07:02:55.625Z,1.80
2022-08-12T07:04:36.388Z,1.73
2022-08-12T07:06:04.191Z,1.60
2022-08-12T07:07:27.909Z,2.10
2022-08-12T07:08:51.593Z,1.85
2022-08-12T07:10:15.257Z,1.77
2022-08-12T07:11:43.647Z,3.78
2022-08-12T07:13:14.753Z,2.15
2022-08-12T07:14:41.021Z,1.45
2022-08-12T07:16:09.589Z,2.10
2022-08-12T07:17:37.571Z,2.10
2022-08-12T07:19:02.089Z,1.60
2022-08-12T07:20:51.223Z,1.67
2022-08-12T07:22:13.544Z,1.40
2022-08-12T07:23:38.136Z,1.33
2022-08-12T07:25:27.679Z,1.67
2022-08-12T07:26:54.926Z,2.22
2022-08-12T07:28:23.475Z,1.60
2022-08-12T07:29:59.401Z,1.38
2022-08-12T07:31:31.006Z,1.27
2022-08-12T07:32:57.449Z,1.90
2022-08-12T07:34:24.893Z,1.30
2022-08-12T07:35:48.833Z,1.50
2022-08-12T07:37:13.271Z,1.70
2022-08-12T07:38:40.060Z,1.50
2022-08-12T07:40:04.867Z,1.50
2022-08-12T07:41:31.534Z,1.55
2022-08-12T07:42:57.219Z,1.52
2022-08-12T07:44:21.170Z,1.70
2022-08-12T07:45:45.418Z,1.55
2022-08-12T07:47:09.067Z,1.55
2022-08-12T07:48:41.432Z,1.40
2022-08-12T07:50:09.270Z,1.60
2022-08-12T07:51:33.543Z,1.70
2022-08-12T07:52:56.061Z,1.45
2022-08-12T07:54:19.607Z,1.40
2022-08-12T07:55:43.247Z,1.92
2022-08-12T07:57:11.708Z,1.52
2022-08-12T07:58:40.519Z,1.67
2022-08-12T08:00:06.377Z,1.60
2022-08-12T08:01:30.317Z,1.60
2022-08-12T08:02:54.600Z,1.20
2022-08-12T08:04:35.399Z,1.20
2022-08-12T08:05:59.458Z,1.40
2022-08-12T08:07:22.570Z,1.55
2022-08-12T08:08:46.155Z,1.30
2022-08-12T08:10:10.917Z,1.50
2022-08-12T08:11:51.799Z,1.45
2022-08-12T08:13:16.526Z,1.33
2022-08-12T08:14:40.584Z,1.27
2022-08-12T08:16:05.781Z,1.33
2022-08-12T08:17:28.331Z,1.20
2022-08-12T08:18:53.302Z,1.17
2022-08-12T08:20:15.868Z,1.00
2022-08-12T08:21:39.462Z,1.50
2022-08-12T08:23:07.698Z,1.10
2022-08-12T08:24:32.344Z,1.10
2022-08-12T08:25:56.455Z,1.10
2022-08-12T08:27:19.034Z,1.13
2022-08-12T08:28:42.627Z,1.13
2022-08-12T08:30:11.504Z,1.15
2022-08-12T08:31:35.814Z,1.00
2022-08-12T08:32:58.595Z,1.23
2022-08-12T08:34:33.684Z,1.05
2022-08-12T08:36:20.593Z,1.08
2022-08-12T08:37:48.355Z,1.00
2022-08-12T08:39:13.305Z,1.05
2022-08-12T08:40:56.759Z,1.10
2022-08-12T08:42:40.440Z,0.85
2022-08-12T08:44:04.493Z,1.00
2022-08-12T08:45:29.500Z,1.00
2022-08-12T08:46:55.618Z,1.08
2022-08-12T08:48:22.132Z,1.10
2022-08-12T08:49:45.813Z,1.17
2022-08-12T08:51:09.557Z,0.93
2022-08-12T08:52:45.681Z,1.13
2022-08-12T08:54:11.548Z,0.90
2022-08-12T08:56:03.113Z,1.10
2022-08-12T08:57:19.077Z,1.10
2022-08-12T08:58:45.439Z,1.20
2022-08-12T09:00:15.483Z,1.08
2022-08-12T09:01:41.014Z,1.20
2022-08-12T09:04:21.384Z,1.00
2022-08-12T09:05:13.342Z,1.00
2022-08-12T09:06:37.442Z,1.00
2022-08-12T09:08:13.102Z,0.93
2022-08-12T09:10:01.905Z,1.00
2022-08-12T09:15:17.073Z,1.52
2022-08-12T09:16:44.713Z,1.20
2022-08-12T09:18:12.913Z,0.90
2022-08-12T09:19:38.219Z,1.23
2022-08-12T09:21:03.809Z,1.05
2022-08-12T09:22:29.432Z,1.00
2022-08-12T09:24:06.131Z,1.52
2022-08-12T09:25:33.352Z,1.10
2022-08-12T09:26:57.204Z,1.00
2022-08-12T09:30:16.032Z,1.30
2022-08-12T09:32:04.292Z,1.75
2022-08-12T09:34:26.426Z,1.10
2022-08-12T09:35:22.614Z,1.20
2022-08-12T09:37:00.887Z,1.10
2022-08-12T09:38:28.268Z,1.08
2022-08-12T09:40:04.239Z,1.30
2022-08-12T09:42:32.851Z,1.10
2022-08-12T09:43:53.374Z,1.00
2022-08-12T09:45:24.486Z,1.00
2022-08-12T09:47:10.798Z,1.20
2022-08-12T09:48:36.555Z,1.10
2022-08-12T09:50:01.809Z,1.23
2022-08-12T09:51:37.634Z,0.90
2022-08-12T09:53:15.111Z,1.08
2022-08-12T09:54:39.657Z,1.20
2022-08-12T09:57:00.684Z,1.17
2022-08-12T09:58:44.952Z,0.80
2022-08-12T10:00:17.029Z,0.82
2022-08-12T10:01:23.124Z,1.30
2022-08-12T10:03:06.541Z,1.17
2022-08-12T10:04:31.613Z,1.13
2022-08-12T10:06:26.435Z,1.50
2022-08-12T10:07:40.929Z,1.13
2022-08-12T10:09:05.414Z,1.58
2022-08-12T10:10:30.444Z,1.65
2022-08-12T10:12:13.145Z,1.20
2022-08-12T10:13:43.611Z,1.10
2022-08-12T10:15:08.081Z,1.00
2022-08-12T10:16:43.811Z,1.20
2022-08-12T10:18:07.830Z,1.17
2022-08-12T10:19:36.588Z,1.05
2022-08-12T10:20:59.631Z,1.25
2022-08-12T10:22:37.223Z,1.20
2022-08-12T10:24:06.718Z,1.10
2022-08-12T10:26:34.566Z,1.10
2022-08-12T10:28:03.921Z,0.85
2022-08-12T10:30:37.939Z,1.38
2022-08-12T10:31:28.563Z,1.75
2022-08-12T10:33:19.214Z,1.35
2022-08-12T10:34:58.314Z,1.33
2022-08-12T10:36:20.845Z,1.20
2022-08-12T10:38:38.444Z,1.10
2022-08-12T10:40:02.226Z,1.00
2022-08-12T10:41:56.995Z,1.33
2022-08-12T10:43:56.917Z,1.10
2022-08-12T10:45:20.689Z,1.33
2022-08-12T10:46:49.866Z,1.17
2022-08-12T10:48:21.711Z,1.25
2022-08-12T10:50:02.822Z,1.08
2022-08-12T10:52:03.339Z,1.45
2022-08-12T10:53:21.270Z,1.65
2022-08-12T10:55:07.084Z,1.00
2022-08-12T10:56:36.960Z,0.88
2022-08-12T10:58:14.423Z,1.15
2022-08-12T11:00:34.600Z,1.20
2022-08-12T11:04:16.864Z,1.40
2022-08-12T11:04:35.837Z,1.38
2022-08-12T11:07:01.975Z,1.65
2022-08-12T11:07:02.852Z,1.13
2022-08-12T11:08:38.705Z,1.40
2022-08-12T11:10:07.175Z,1.30
2022-08-12T11:12:36.097Z,1.45
2022-08-12T11:13:14.602Z,1.10
2022-08-12T11:14:49.209Z,1.15
2022-08-12T11:16:22.130Z,1.10
2022-08-12T11:17:52.486Z,1.17
2022-08-12T11:19:17.917Z,1.05
2022-08-12T11:20:48.130Z,1.20
2022-08-12T11:22:14.351Z,1.20
2022-08-12T11:23:38.161Z,1.00
2022-08-12T11:25:10.213Z,1.42
2022-08-12T11:26:35.016Z,1.15
2022-08-12T11:27:58.086Z,1.00
2022-08-12T11:29:24.080Z,1.00
2022-08-12T11:30:47.892Z,1.35
2022-08-12T11:32:11.469Z,1.30
2022-08-12T11:34:06.624Z,1.13
2022-08-12T11:35:18.784Z,1.30
2022-08-12T11:36:53.519Z,1.20
2022-08-12T11:38:20.352Z,1.00
2022-08-12T11:41:32.118Z,1.10
2022-08-12T11:43:00.668Z,1.20
2022-08-12T11:44:42.992Z,1.10
2022-08-12T11:46:06.254Z,0.98
2022-08-12T11:47:33.328Z,1.10
2022-08-12T11:48:56.954Z,1.23
2022-08-12T11:50:20.244Z,1.10
2022-08-12T11:51:44.034Z,1.10
2022-08-12T11:53:58.843Z,1.40
2022-08-12T11:55:07.036Z,1.10
2022-08-12T11:56:38.780Z,1.10
2022-08-12T11:58:40.433Z,1.05
2022-08-12T12:02:02.556Z,0.90
2022-08-12T12:03:14.806Z,1.33
2022-08-12T12:04:39.961Z,1.08
2022-08-12T12:06:03.780Z,1.02
2022-08-12T12:07:34.027Z,1.20
2022-08-12T12:09:12.420Z,1.77
2022-08-12T12:10:40.296Z,1.30
2022-08-12T12:12:05.509Z,1.35
2022-08-12T12:14:08.843Z,1.30
2022-08-12T12:15:14.977Z,1.00
2022-08-12T12:16:50.109Z,1.65
2022-08-12T12:18:30.858Z,1.25
2022-08-12T12:19:54.073Z,1.52
2022-08-12T12:21:46.713Z,1.48
2022-08-12T12:23:02.394Z,1.20
2022-08-12T12:24:28.452Z,1.15
2022-08-12T12:26:06.806Z,1.30
2022-08-12T12:28:04.018Z,1.60
2022-08-12T12:30:19.682Z,1.60
2022-08-12T12:31:15.113Z,1.40
2022-08-12T12:32:56.795Z,1.23
2022-08-12T12:34:30.190Z,1.10
2022-08-12T12:36:18.754Z,1.33
2022-08-12T12:38:04.875Z,1.20
2022-08-12T12:39:54.807Z,1.48
2022-08-12T12:41:19.174Z,1.10
2022-08-12T12:42:57.806Z,1.17
2022-08-12T12:44:25.765Z,0.98
2022-08-12T12:45:54.003Z,1.15
2022-08-12T12:47:26.028Z,1.00
2022-08-12T12:48:53.771Z,1.00
2022-08-12T12:50:34.846Z,0.90
2022-08-12T12:52:19.910Z,1.23
2022-08-12T12:54:07.872Z,0.98
2022-08-12T12:55:32.617Z,1.20
2022-08-12T12:56:59.107Z,1.10
2022-08-12T12:58:22.758Z,1.40
2022-08-12T13:00:06.810Z,1.27
2022-08-12T13:01:32.040Z,0.90
2022-08-12T13:02:57.682Z,1.00
2022-08-12T13:04:20.332Z,1.20
2022-08-12T13:05:46.027Z,1.10
2022-08-12T13:07:18.862Z,1.17
2022-08-12T13:08:43.384Z,1.25
2022-08-12T13:10:11.352Z,1.02
2022-08-12T13:11:42.123Z,1.10
2022-08-12T13:14:10.354Z,1.30
2022-08-12T13:14:51.537Z,1.20
2022-08-12T13:16:20.821Z,1.00
2022-08-12T13:18:02.886Z,1.02
2022-08-12T13:19:36.532Z,1.00
2022-08-12T13:21:04.942Z,1.35
2022-08-12T13:22:27.707Z,1.10
2022-08-12T13:23:52.078Z,1.13
2022-08-12T13:25:18.184Z,1.13
2022-08-12T13:26:45.766Z,1.15
2022-08-12T13:28:10.026Z,1.10
2022-08-12T13:29:38.563Z,1.00
2022-08-12T13:31:03.080Z,1.15
2022-08-12T13:32:31.622Z,0.93
2022-08-12T13:34:33.479Z,0.93
2022-08-12T13:36:05.689Z,1.05
2022-08-12T13:37:24.681Z,1.25
2022-08-12T13:38:54.292Z,1.05
2022-08-12T13:40:18.181Z,0.90
2022-08-12T13:41:42.509Z,1.05
2022-08-12T13:43:07.119Z,1.00
2022-08-12T13:44:31.264Z,0.93
2022-08-12T13:45:55.209Z,1.02
2022-08-12T13:47:20.059Z,1.05
2022-08-12T13:48:45.713Z,1.15
2022-08-12T13:50:09.611Z,1.15
2022-08-12T13:51:41.053Z,1.00
2022-08-12T13:53:23.746Z,1.38
2022-08-12T13:54:56.110Z,1.20
2022-08-12T13:56:23.057Z,1.15
2022-08-12T13:57:47.982Z,1.13
2022-08-12T13:59:13.435Z,0.98
2022-08-12T14:00:38.509Z,1.00
2022-08-12T14:02:02.803Z,1.08
2022-08-12T14:03:28.314Z,1.20
2022-08-12T14:05:31.332Z,1.10
2022-08-12T14:06:54.863Z,1.10
2022-08-12T14:08:21.158Z,1.17
2022-08-12T14:10:01.770Z,1.17
2022-08-12T14:11:27.849Z,1.10
2022-08-12T14:12:54.399Z,1.30
2022-08-12T14:14:19.255Z,1.60
2022-08-12T14:15:45.020Z,1.20
2022-08-12T14:17:11.342Z,1.40
2022-08-12T14:18:36.088Z,1.30
2022-08-12T14:20:15.301Z,1.40
2022-08-12T14:22:01.005Z,1.30
2022-08-12T14:24:04.925Z,1.45
2022-08-12T14:25:09.142Z,1.27
2022-08-12T14:26:34.105Z,1.40
2022-08-12T14:28:11.274Z,1.00
2022-08-12T14:29:55.772Z,1.20
2022-08-12T14:31:21.650Z,1.27
2022-08-12T14:32:44.264Z,1.30
2022-08-12T14:34:09.282Z,1.40
2022-08-12T14:35:41.247Z,1.23
2022-08-12T14:37:12.945Z,1.17
2022-08-12T14:38:54.186Z,0.98
2022-08-12T14:40:18.617Z,1.27
2022-08-12T14:41:56.992Z,1.10
2022-08-12T14:43:25.701Z,1.05
2022-08-12T14:45:01.187Z,1.13
2022-08-12T14:46:27.817Z,1.23
2022-08-12T14:47:58.469Z,1.00
2022-08-12T14:50:33.639Z,1.15
2022-08-12T14:52:42.568Z,1.00
2022-08-12T14:58:03.623Z,1.20
2022-08-12T14:59:57.618Z,1.30
2022-08-12T15:01:39.401Z,1.08
2022-08-12T15:03:03.518Z,0.90
2022-08-12T15:04:30.112Z,1.65
2022-08-12T15:06:06.017Z,1.02
2022-08-12T15:07:49.548Z,1.17
2022-08-12T15:09:16.277Z,1.08
2022-08-12T15:10:51.745Z,1.30
2022-08-12T15:12:16.745Z,1.58
2022-08-12T15:13:49.388Z,1.15
2022-08-12T15:15:14.615Z,1.20
2022-08-12T15:16:40.342Z,1.23
2022-08-12T15:18:03.300Z,1.00
2022-08-12T15:20:27.734Z,1.25
2022-08-12T15:21:17.753Z,1.30
2022-08-12T15:22:54.154Z,1.02
2022-08-12T15:24:17.894Z,1.38
2022-08-12T15:25:47.310Z,1.42
2022-08-12T15:27:11.352Z,1.45
2022-08-12T15:28:37.030Z,1.30
2022-08-12T15:30:12.726Z,1.20
2022-08-12T15:31:59.548Z,1.10
2022-08-12T15:33:25.190Z,1.10
2022-08-12T15:35:12.209Z,1.25
2022-08-12T15:36:55.083Z,1.30
2022-08-12T15:38:20.222Z,1.50
2022-08-12T15:39:55.209Z,1.20
2022-08-12T15:41:25.598Z,1.35
2022-08-12T15:42:53.381Z,1.25
2022-08-12T15:44:42.390Z,1.65
2022-08-12T15:46:02.122Z,1.13
2022-08-12T15:47:33.549Z,1.20
2022-08-12T15:49:17.048Z,1.17
2022-08-12T15:50:45.517Z,0.93
2022-08-12T15:52:08.441Z,1.30
2022-08-12T15:54:01.726Z,1.15
2022-08-12T15:55:26.664Z,1.27
2022-08-12T15:57:03.672Z,1.08
2022-08-12T15:58:27.380Z,1.08
2022-08-12T16:00:04.185Z,1.40
2022-08-12T16:01:35.719Z,1.25
2022-08-12T16:03:05.398Z,1.10
2022-08-12T16:04:28.420Z,1.23
2022-08-12T16:06:15.708Z,1.38
2022-08-12T16:07:37.082Z,1.40
2022-08-12T16:09:03.048Z,1.27
2022-08-12T16:10:31.479Z,1.10
2022-08-12T16:11:54.554Z,1.55
2022-08-12T16:13:25.444Z,1.33
2022-08-12T16:14:57.067Z,1.60
2022-08-12T16:16:23.986Z,1.30
2022-08-12T16:18:19.009Z,1.40
2022-08-12T16:20:04.339Z,1.40
2022-08-12T16:21:51.229Z,1.25
2022-08-12T16:23:26.641Z,1.58
2022-08-12T16:24:54.118Z,1.27
2022-08-12T16:26:27.669Z,1.60
2022-08-12T16:27:58.293Z,1.48
2022-08-12T16:29:49.353Z,1.33
2022-08-12T16:31:22.565Z,1.35
2022-08-12T16:32:52.894Z,1.50
2022-08-12T16:34:25.779Z,1.42
2022-08-12T16:36:06.184Z,1.60
2022-08-12T16:38:25.423Z,1.27
2022-08-12T16:39:19.027Z,1.52
2022-08-12T16:40:46.256Z,1.50
2022-08-12T16:42:10.129Z,1.70
2022-08-12T16:43:35.174Z,1.30
2022-08-12T16:45:02.187Z,1.58
2022-08-12T16:46:33.612Z,1.67
2022-08-12T16:48:00.552Z,1.60
2022-08-12T16:49:24.312Z,1.60
2022-08-12T16:50:49.838Z,1.42
2022-08-12T16:52:14.938Z,1.45
2022-08-12T16:53:44.192Z,1.17
2022-08-12T16:55:14.783Z,1.95
2022-08-12T16:56:38.392Z,1.45
2022-08-12T16:58:18.569Z,1.60
2022-08-12T16:59:56.315Z,1.63
2022-08-12T17:01:24.745Z,1.55
2022-08-12T17:02:57.154Z,1.45
2022-08-12T17:04:20.962Z,1.20
2022-08-12T17:05:50.246Z,1.65
2022-08-12T17:07:17.070Z,1.70
2022-08-12T17:08:49.840Z,1.50
2022-08-12T17:10:36.757Z,1.50
2022-08-12T17:12:01.587Z,1.70
2022-08-12T17:13:26.310Z,1.60
2022-08-12T17:14:53.008Z,1.60
2022-08-12T17:16:18.098Z,1.83
2022-08-12T17:17:43.070Z,1.42
2022-08-12T17:19:08.907Z,1.40
2022-08-12T17:20:37.474Z,1.60
2022-08-12T17:22:05.773Z,1.52
2022-08-12T17:23:33.210Z,1.60
2022-08-12T17:25:14.837Z,2.00
2022-08-12T17:26:40.106Z,1.40
2022-08-12T17:28:06.086Z,1.70
2022-08-12T17:30:01.100Z,1.50
2022-08-12T17:31:14.519Z,1.40
2022-08-12T17:32:39.819Z,1.40
2022-08-12T17:34:06.733Z,1.60
2022-08-12T17:35:43.392Z,1.80
2022-08-12T17:37:14.396Z,2.08
2022-08-12T17:38:39.394Z,1.50
2022-08-12T17:40:16.018Z,1.30
2022-08-12T17:41:56.658Z,1.40
2022-08-12T17:43:56.566Z,1.70
2022-08-12T17:45:18.471Z,1.65
2022-08-12T17:46:42.851Z,1.42
2022-08-12T17:48:10.246Z,1.60
2022-08-12T17:50:02.475Z,1.42
2022-08-12T17:51:21.189Z,1.50
2022-08-12T17:52:45.137Z,1.70
2022-08-12T17:54:15.698Z,1.63
2022-08-12T17:55:47.473Z,2.00
2022-08-12T17:57:16.578Z,1.88
2022-08-12T17:58:42.460Z,1.40
2022-08-12T18:00:18.117Z,1.73
2022-08-12T18:01:44.195Z,1.85
2022-08-12T18:03:09.861Z,1.52
2022-08-12T18:04:36.525Z,1.90
2022-08-12T18:06:07.605Z,1.55
2022-08-12T18:07:36.015Z,1.73
2022-08-12T18:09:08.635Z,1.40
2022-08-12T18:10:53.222Z,1.60
2022-08-12T18:12:35.563Z,1.67
2022-08-12T18:13:59.442Z,1.67
2022-08-12T18:15:26.556Z,1.55
2022-08-12T18:17:09.708Z,1.60
2022-08-12T18:18:34.400Z,1.67
2022-08-12T18:20:06.113Z,1.60
2022-08-12T18:22:02.256Z,1.70
2022-08-12T18:23:14.807Z,1.88
2022-08-12T18:24:46.783Z,1.80
2022-08-12T18:26:26.595Z,1.63
2022-08-12T18:27:50.936Z,1.77
2022-08-12T18:29:42.362Z,1.88
2022-08-12T18:31:07.026Z,2.15
2022-08-12T18:32:44.304Z,1.92
2022-08-12T18:34:16.742Z,1.67
2022-08-12T18:35:47.088Z,2.13
2022-08-12T18:37:26.686Z,2.08
2022-08-12T18:39:04.540Z,1.80
2022-08-12T18:40:58.620Z,2.10
2022-08-12T18:42:24.322Z,2.03
2022-08-12T18:43:59.402Z,2.22
2022-08-12T18:45:25.779Z,2.00
2022-08-12T18:47:09.611Z,2.25
2022-08-12T18:48:37.289Z,2.20
2022-08-12T18:50:00.864Z,2.05
2022-08-12T18:51:34.116Z,2.92
2022-08-12T18:53:10.911Z,2.60
2022-08-12T18:54:59.324Z,2.47
2022-08-12T18:56:33.880Z,2.25
2022-08-12T18:58:06.468Z,2.55
2022-08-12T19:00:00.756Z,2.50
2022-08-12T19:02:19.526Z,2.50
2022-08-12T19:03:02.342Z,2.30
2022-08-12T19:04:28.216Z,2.30
2022-08-12T19:05:56.606Z,2.20
2022-08-12T19:07:21.486Z,2.10
2022-08-12T19:08:47.130Z,2.75
2022-08-12T19:10:10.385Z,2.30
2022-08-12T19:11:52.496Z,2.47
2022-08-12T19:13:34.975Z,2.63
2022-08-12T19:15:03.735Z,3.03
2022-08-12T19:16:27.673Z,2.38
2022-08-12T19:18:02.841Z,2.60
2022-08-12T19:19:27.327Z,2.50
2022-08-12T19:21:11.780Z,2.25
2022-08-12T19:22:39.393Z,2.42
2022-08-12T19:24:22.986Z,2.28
2022-08-12T19:26:01.279Z,2.55
2022-08-12T19:27:26.240Z,2.30
2022-08-12T19:28:57.621Z,2.47
2022-08-12T19:30:48.354Z,2.70
2022-08-12T19:32:23.338Z,2.45
2022-08-12T19:34:06.339Z,2.70
2022-08-12T19:36:07.391Z,2.38
2022-08-12T19:37:22.606Z,2.70
2022-08-12T19:38:46.963Z,2.80
2022-08-12T19:40:32.700Z,3.13
2022-08-12T19:42:01.340Z,2.78
2022-08-12T19:43:25.765Z,2.70
2022-08-12T19:45:06.929Z,3.03
2022-08-12T19:46:38.006Z,2.60
2022-08-12T19:48:04.332Z,2.72
2022-08-12T19:49:28.448Z,3.03
2022-08-12T19:50:56.671Z,3.00
2022-08-12T19:52:21.621Z,2.80
2022-08-12T19:53:57.769Z,2.75
2022-08-12T19:55:22.261Z,2.83
2022-08-12T19:56:51.505Z,3.05
2022-08-12T19:58:18.041Z,3.15
2022-08-12T20:00:03.462Z,2.72
2022-08-12T20:01:28.202Z,2.72
2022-08-12T20:03:00.655Z,3.42
2022-08-12T20:04:27.364Z,2.70
2022-08-12T20:06:05.171Z,3.25
2022-08-12T20:07:34.468Z,3.40
2022-08-12T20:09:06.344Z,2.95
2022-08-12T20:10:35.111Z,2.88
2022-08-12T20:12:14.234Z,2.65
2022-08-12T20:13:42.370Z,2.92
2022-08-12T20:15:09.074Z,3.30
2022-08-12T20:16:54.438Z,2.83
2022-08-12T20:18:52.998Z,2.90
2022-08-12T20:20:19.134Z,3.45
2022-08-12T20:21:43.576Z,2.63
2022-08-12T20:23:08.657Z,3.65
2022-08-12T20:24:36.948Z,4.53
2022-08-12T20:26:08.945Z,4.13
2022-08-12T20:28:02.730Z,3.30
2022-08-12T20:29:17.865Z,3.80
2022-08-12T20:30:53.551Z,3.72
2022-08-12T20:32:29.513Z,3.70
2022-08-12T20:33:56.648Z,3.92
2022-08-12T20:35:24.751Z,4.57
2022-08-12T20:36:57.225Z,3.30